CheckWX is a tool to help pilots better visualize weather data.  It is not intended as a substitute for an official pre-flight weather briefing.

15:06:45 UTC

KDLS METAR
Columbia Gorge Regional / The Dalles Municipal Airport
The Dalles, Oregon, USA
Current

14 mins ago

KDLS 201453Z AUTO 30009KT 10SM BKN100 OVC120 14/08 A2976 RMK AO2 SLP078 T01390083 51008
Observed
May-20 @ 14:53 UTC
Wind
  • 300° at 9 KTS
Visibility
10 SM
Flight Rules
VFR
Cloud Levels
  • Broken at 10,000' AGL
  • Overcast at 12,000' AGL
Temperature
14°C / 57°F
Dewpoint
C / 46°F
Humidity
67%
Altimeter
29.76" Hg
Pressure
1007.82 hPa
Previous

1 hour ago

KDLS 201353Z AUTO 31009KT 10SM OVC110 14/08 A2976 RMK AO2 SLP077 T01390083
Observed
May-20 @ 13:53 UTC
Wind
  • 310° at 9 KTS
Visibility
10 SM
Flight Rules
VFR
Cloud Levels
  • Overcast at 11,000' AGL
Temperature
14°C / 57°F
Dewpoint
C / 46°F
Humidity
67%
Altimeter
29.76" Hg
Pressure
1007.82 hPa
Previous

2 hours ago

KDLS 201253Z AUTO 31013KT 10SM OVC090 14/08 A2975 RMK AO2 SLP074 T01390083
Observed
May-20 @ 12:53 UTC
Wind
  • 310° at 13 KTS
Visibility
10 SM
Flight Rules
VFR
Cloud Levels
  • Overcast at 9,000' AGL
Temperature
14°C / 57°F
Dewpoint
C / 46°F
Humidity
67%
Altimeter
29.75" Hg
Pressure
1007.42 hPa